Time;durP1;ratioP1;P1;durP2;ratioP2;P2;SDS_P1;SDS_P2;PMS_P1;PMS_P2;Temp;Humidity;BMP_temperature;BMP_pressure;BME280_temperature;BME280_humidity;BME280_pressure;Samples;Min_cycle;Max_cycle;Signal;HPM_P1;HPM_P2
2023/09/08 00:00:44;;;;;;;4.67;4.57;;;;;;;;;;5035484;28;20422;-70
2023/09/08 00:03:10;;;;;;;7.53;5.33;;;;;;;;;;5035583;28;20414;-73
2023/09/08 00:05:36;;;;;;;6.10;5.27;;;;;;;;;;5035342;28;20411;-73
2023/09/08 00:08:02;;;;;;;5.77;5.37;;;;;;;;;;5035334;28;20419;-72
2023/09/08 00:10:28;;;;;;;5.97;5.67;;;;;;;;;;5035137;28;20850;-72
2023/09/08 00:12:54;;;;;;;5.30;5.10;;;;;;;;;;5035500;28;20787;-72
2023/09/08 00:15:19;;;;;;;6.47;6.10;;;;;;;;;;5035436;28;20419;-71
2023/09/08 00:17:47;;;;;;;7.00;6.40;;;;;;;;;;5035309;28;20434;-73
2023/09/08 00:20:13;;;;;;;6.03;5.50;;;;;;;;;;5035013;28;20543;-72
2023/09/08 00:22:39;;;;;;;6.43;5.90;;;;;;;;;;5033597;28;20506;-72
2023/09/08 00:25:06;;;;;;;11.70;5.73;;;;;;;;;;5035843;28;20423;-71
2023/09/08 00:27:32;;;;;;;5.87;5.37;;;;;;;;;;5035217;28;20458;-72
2023/09/08 00:29:58;;;;;;;7.43;6.80;;;;;;;;;;5035049;28;20549;-73
2023/09/08 00:32:24;;;;;;;5.53;5.40;;;;;;;;;;5034789;28;21073;-72
2023/09/08 00:34:50;;;;;;;5.87;5.57;;;;;;;;;;5034556;28;20423;-71
2023/09/08 00:37:16;;;;;;;6.40;5.90;;;;;;;;;;5035042;28;20419;-72
2023/09/08 00:39:42;;;;;;;7.40;6.90;;;;;;;;;;5033328;28;20419;-72
2023/09/08 00:42:08;;;;;;;5.63;5.43;;;;;;;;;;5034559;28;20427;-70
2023/09/08 00:44:34;;;;;;;7.83;5.90;;;;;;;;;;5034582;28;20423;-71
2023/09/08 00:47:00;;;;;;;5.60;5.40;;;;;;;;;;5034842;28;20977;-73
2023/09/08 00:49:26;;;;;;;6.90;6.03;;;;;;;;;;5034489;28;20412;-71
2023/09/08 00:51:52;;;;;;;6.10;5.77;;;;;;;;;;5034679;28;20471;-71
2023/09/08 00:54:18;;;;;;;6.97;6.33;;;;;;;;;;5034160;28;20831;-72
2023/09/08 00:56:45;;;;;;;6.20;5.67;;;;;;;;;;5034953;28;20902;-72
2023/09/08 00:59:11;;;;;;;5.13;4.93;;;;;;;;;;5034272;28;20439;-72
2023/09/08 01:01:37;;;;;;;5.70;4.90;;;;;;;;;;5034427;28;20856;-72
2023/09/08 01:04:03;;;;;;;5.90;5.40;;;;;;;;;;5034169;28;20412;-72
2023/09/08 01:06:29;;;;;;;6.90;6.40;;;;;;;;;;5034129;28;20565;-72
2023/09/08 01:08:56;;;;;;;5.60;5.30;;;;;;;;;;5034247;28;20436;-71
2023/09/08 01:14:27;;;;;;;4.80;4.40;;;;;;;;;;5034133;28;20457;-71
2023/09/08 01:16:53;;;;;;;6.40;4.80;;;;;;;;;;5034516;28;20416;-71
2023/09/08 01:19:20;;;;;;;10.30;4.43;;;;;;;;;;5033995;28;20810;-72
2023/09/08 01:21:52;;;;;;;5.60;4.73;;;;;;;;;;5034244;28;20411;-71
2023/09/08 01:24:37;;;;;;;5.27;4.93;;;;;;;;;;5035069;28;20431;-73
2023/09/08 01:27:03;;;;;;;5.93;5.53;;;;;;;;;;5033832;28;20403;-72
2023/09/08 01:29:30;;;;;;;5.17;4.97;;;;;;;;;;5034064;28;20411;-72
2023/09/08 01:31:56;;;;;;;5.90;5.50;;;;;;;;;;5033560;28;20971;-72
2023/09/08 01:34:22;;;;;;;5.37;4.93;;;;;;;;;;5034248;28;20420;-71
2023/09/08 01:36:48;;;;;;;6.90;5.70;;;;;;;;;;5033549;28;20420;-72
2023/09/08 01:39:14;;;;;;;7.80;4.90;;;;;;;;;;5032247;28;20489;-70
2023/09/08 01:41:40;;;;;;;5.07;4.87;;;;;;;;;;5033512;28;20947;-72
2023/09/08 01:44:10;;;;;;;4.83;4.63;;;;;;;;;;5033516;28;20782;-71
2023/09/08 01:46:36;;;;;;;4.40;4.20;;;;;;;;;;5033091;28;20435;-72
2023/09/08 01:49:02;;;;;;;5.33;4.87;;;;;;;;;;5033298;28;20419;-71
2023/09/08 01:51:27;;;;;;;5.40;5.07;;;;;;;;;;5033259;28;20467;-72
2023/09/08 01:53:53;;;;;;;10.40;4.30;;;;;;;;;;5033709;28;20459;-71
2023/09/08 01:56:19;;;;;;;8.33;5.23;;;;;;;;;;5033568;28;20411;-73
2023/09/08 01:58:45;;;;;;;5.47;5.03;;;;;;;;;;5032023;28;20424;-73
2023/09/08 02:01:11;;;;;;;4.77;4.57;;;;;;;;;;5033154;28;20463;-72
2023/09/08 02:03:37;;;;;;;5.10;4.67;;;;;;;;;;5033347;28;20431;-71
2023/09/08 02:06:03;;;;;;;5.27;4.93;;;;;;;;;;5033273;28;20423;-73
2023/09/08 02:08:29;;;;;;;3.90;3.80;;;;;;;;;;5033236;28;20428;-71
2023/09/08 02:10:55;;;;;;;4.03;3.93;;;;;;;;;;5033336;28;20614;-72
2023/09/08 02:13:21;;;;;;;4.77;4.47;;;;;;;;;;5049061;28;20424;-73
2023/09/08 02:15:47;;;;;;;9.20;4.33;;;;;;;;;;5033054;28;20494;-73
2023/09/08 02:18:13;;;;;;;5.57;5.23;;;;;;;;;;5033115;28;20411;-73
2023/09/08 02:20:39;;;;;;;5.50;5.00;;;;;;;;;;5032906;28;20422;-73
2023/09/08 02:23:06;;;;;;;6.90;6.00;;;;;;;;;;5032963;28;20477;-72
2023/09/08 02:25:32;;;;;;;6.50;6.00;;;;;;;;;;5032983;28;20415;-73
2023/09/08 02:27:58;;;;;;;5.93;5.67;;;;;;;;;;5032878;28;20419;-73
2023/09/08 02:30:24;;;;;;;6.23;5.53;;;;;;;;;;5032864;28;20502;-73
2023/09/08 02:32:50;;;;;;;5.90;5.40;;;;;;;;;;5033103;28;20427;-72
2023/09/08 02:35:16;;;;;;;5.80;5.33;;;;;;;;;;5033348;28;20904;-73
2023/09/08 02:37:42;;;;;;;5.90;5.40;;;;;;;;;;5031561;28;20435;-73
2023/09/08 02:40:09;;;;;;;6.53;5.40;;;;;;;;;;5033059;28;20415;-72
2023/09/08 02:42:35;;;;;;;5.40;4.90;;;;;;;;;;5032964;28;20510;-72
2023/09/08 02:45:01;;;;;;;6.93;5.90;;;;;;;;;;5032704;28;20417;-73
2023/09/08 02:47:27;;;;;;;5.17;4.97;;;;;;;;;;5032606;28;20521;-73
2023/09/08 02:49:53;;;;;;;5.47;4.93;;;;;;;;;;5032882;28;20429;-72
2023/09/08 02:52:19;;;;;;;4.87;4.77;;;;;;;;;;5032812;28;20475;-73
2023/09/08 02:54:45;;;;;;;4.70;4.50;;;;;;;;;;5032607;28;20463;-71
2023/09/08 02:57:11;;;;;;;4.90;4.60;;;;;;;;;;5032780;28;20538;-71
2023/09/08 02:59:37;;;;;;;4.90;4.60;;;;;;;;;;5035776;28;20937;-72
2023/09/08 03:02:03;;;;;;;4.73;4.63;;;;;;;;;;5036689;28;20430;-69
2023/09/08 03:04:29;;;;;;;6.03;5.10;;;;;;;;;;5036391;28;20407;-72
2023/09/08 03:06:55;;;;;;;4.80;4.60;;;;;;;;;;5036377;28;20934;-72
2023/09/08 03:09:21;;;;;;;4.43;4.20;;;;;;;;;;5036596;28;20446;-71
2023/09/08 03:11:47;;;;;;;6.60;3.90;;;;;;;;;;5036643;28;20485;-71
2023/09/08 03:14:13;;;;;;;4.73;3.90;;;;;;;;;;5036225;28;20450;-72
2023/09/08 03:16:39;;;;;;;5.83;3.50;;;;;;;;;;5036414;28;20450;-70
2023/09/08 03:19:05;;;;;;;4.60;4.40;;;;;;;;;;5035774;28;20899;-72
2023/09/08 03:21:31;;;;;;;4.67;4.27;;;;;;;;;;5035732;28;20427;-72
2023/09/08 03:23:57;;;;;;;4.80;4.40;;;;;;;;;;5035995;28;20768;-73
2023/09/08 03:26:23;;;;;;;4.20;3.80;;;;;;;;;;5036226;28;20419;-72
2023/09/08 03:28:49;;;;;;;4.33;4.23;;;;;;;;;;5035940;28;20774;-71
2023/09/08 03:31:15;;;;;;;4.80;4.60;;;;;;;;;;5036190;28;20697;-72
2023/09/08 03:33:42;;;;;;;4.27;4.07;;;;;;;;;;5036138;28;20412;-72
2023/09/08 03:36:08;;;;;;;5.83;4.67;;;;;;;;;;5035993;28;20423;-71
2023/09/08 03:38:36;;;;;;;5.00;4.80;;;;;;;;;;5036162;28;20510;-72
2023/09/08 03:41:02;;;;;;;4.57;4.27;;;;;;;;;;5036244;28;20419;-73
2023/09/08 03:43:28;;;;;;;7.33;6.70;;;;;;;;;;5035842;28;20597;-73
2023/09/08 03:45:54;;;;;;;15.17;5.03;;;;;;;;;;5035735;28;20899;-73
2023/09/08 03:48:20;;;;;;;5.27;4.37;;;;;;;;;;5035765;28;20466;-73
2023/09/08 03:50:46;;;;;;;14.37;5.20;;;;;;;;;;5035883;28;20451;-74
2023/09/08 03:53:13;;;;;;;6.27;5.87;;;;;;;;;;5036255;28;20458;-73
2023/09/08 03:55:39;;;;;;;5.37;5.17;;;;;;;;;;5035597;28;20502;-71
2023/09/08 03:58:05;;;;;;;12.30;6.57;;;;;;;;;;5035779;28;20428;-73
2023/09/08 04:00:31;;;;;;;6.33;5.97;;;;;;;;;;5035761;28;20411;-73
2023/09/08 04:02:57;;;;;;;6.00;5.50;;;;;;;;;;5035565;28;20895;-73
2023/09/08 04:05:23;;;;;;;6.20;5.80;;;;;;;;;;5035660;28;20416;-73
2023/09/08 04:07:49;;;;;;;6.93;6.20;;;;;;;;;;5035346;28;20433;-73
2023/09/08 04:10:15;;;;;;;8.63;6.53;;;;;;;;;;5034315;28;20419;-72
2023/09/08 04:12:41;;;;;;;7.37;6.87;;;;;;;;;;5035138;28;20487;-72
2023/09/08 04:15:07;;;;;;;6.83;6.33;;;;;;;;;;5035284;28;20423;-72
2023/09/08 04:17:33;;;;;;;12.73;7.07;;;;;;;;;;5035065;28;20919;-73
2023/09/08 04:19:59;;;;;;;7.03;5.80;;;;;;;;;;5035593;28;20404;-71
2023/09/08 04:22:25;;;;;;;7.20;6.63;;;;;;;;;;5035354;28;20465;-73
2023/09/08 04:24:53;;;;;;;11.13;6.90;;;;;;;;;;5035278;28;20439;-73
2023/09/08 04:27:19;;;;;;;6.33;5.93;;;;;;;;;;5034897;28;20424;-72
2023/09/08 04:29:45;;;;;;;7.73;7.10;;;;;;;;;;5035129;28;20419;-72
2023/09/08 04:32:11;;;;;;;11.93;5.80;;;;;;;;;;5035002;28;20474;-73
2023/09/08 04:34:38;;;;;;;12.03;8.17;;;;;;;;;;5034881;28;20464;-72
2023/09/08 04:37:04;;;;;;;7.60;5.43;;;;;;;;;;5034789;28;20808;-73
2023/09/08 04:39:30;;;;;;;7.80;7.30;;;;;;;;;;5034979;28;20502;-72
2023/09/08 04:41:56;;;;;;;6.63;6.00;;;;;;;;;;5034697;28;20494;-72
2023/09/08 04:44:21;;;;;;;7.53;7.03;;;;;;;;;;5034550;28;20434;-73
2023/09/08 04:46:48;;;;;;;16.73;6.33;;;;;;;;;;5034582;28;20412;-73
2023/09/08 04:49:14;;;;;;;8.87;7.67;;;;;;;;;;5034761;28;20415;-73
2023/09/08 04:51:40;;;;;;;6.20;5.33;;;;;;;;;;5034634;28;20577;-72
2023/09/08 04:54:06;;;;;;;8.60;6.53;;;;;;;;;;5034075;28;20827;-73
2023/09/08 04:56:32;;;;;;;16.33;6.60;;;;;;;;;;5034485;28;20518;-73
2023/09/08 04:59:00;;;;;;;7.93;7.23;;;;;;;;;;5034302;28;20415;-73
2023/09/08 05:01:26;;;;;;;6.47;5.00;;;;;;;;;;5034580;28;20474;-71
2023/09/08 05:03:52;;;;;;;6.77;6.37;;;;;;;;;;5034389;28;20891;-73
2023/09/08 05:06:18;;;;;;;6.40;5.90;;;;;;;;;;5034595;28;20423;-73
2023/09/08 05:08:45;;;;;;;7.83;7.00;;;;;;;;;;5034490;28;20433;-72
2023/09/08 05:11:11;;;;;;;7.47;6.73;;;;;;;;;;5034280;28;20482;-72
2023/09/08 05:13:37;;;;;;;12.83;6.70;;;;;;;;;;5034594;28;20884;-72
2023/09/08 05:16:10;;;;;;;6.97;6.23;;;;;;;;;;5034003;28;20828;-73
2023/09/08 05:18:36;;;;;;;8.13;7.73;;;;;;;;;;5034323;28;20412;-73
2023/09/08 05:21:02;;;;;;;7.53;6.83;;;;;;;;;;5034071;28;20407;-72
2023/09/08 05:23:28;;;;;;;11.00;7.20;;;;;;;;;;5033860;28;20419;-74
2023/09/08 05:25:54;;;;;;;7.90;7.30;;;;;;;;;;5034145;28;20549;-73
2023/09/08 05:28:20;;;;;;;8.20;7.50;;;;;;;;;;5034600;28;20423;-73
2023/09/08 05:30:46;;;;;;;7.67;6.97;;;;;;;;;;5033901;28;20486;-73
2023/09/08 05:33:12;;;;;;;6.53;6.13;;;;;;;;;;5033703;28;20427;-73
2023/09/08 05:35:38;;;;;;;8.90;6.70;;;;;;;;;;5033723;28;20421;-73
2023/09/08 05:38:05;;;;;;;15.07;5.50;;;;;;;;;;5049061;28;20212;-73
2023/09/08 05:40:31;;;;;;;6.03;5.60;;;;;;;;;;5033832;28;20418;-73
2023/09/08 05:42:57;;;;;;;5.87;5.57;;;;;;;;;;5033588;28;20447;-72
2023/09/08 05:45:23;;;;;;;5.87;5.47;;;;;;;;;;5033859;28;20451;-72
2023/09/08 05:47:50;;;;;;;6.00;5.60;;;;;;;;;;5033514;28;20414;-73
2023/09/08 05:50:16;;;;;;;5.90;5.60;;;;;;;;;;5033704;28;20415;-72
2023/09/08 05:52:42;;;;;;;5.90;5.60;;;;;;;;;;5033202;28;20474;-73
2023/09/08 05:55:08;;;;;;;7.50;6.40;;;;;;;;;;5033091;28;21085;-72
2023/09/08 05:57:34;;;;;;;6.80;6.37;;;;;;;;;;5033091;28;20415;-73
2023/09/08 06:00:00;;;;;;;6.93;6.43;;;;;;;;;;5033095;28;20399;-72
2023/09/08 06:02:26;;;;;;;6.53;6.23;;;;;;;;;;5033152;28;20926;-73
2023/09/08 06:04:52;;;;;;;9.30;7.00;;;;;;;;;;5033044;28;20412;-73
2023/09/08 06:07:18;;;;;;;6.47;6.17;;;;;;;;;;5033805;28;20477;-73
2023/09/08 06:09:44;;;;;;;8.67;7.00;;;;;;;;;;5033398;28;20412;-73
2023/09/08 06:12:10;;;;;;;8.47;7.87;;;;;;;;;;5033316;28;20471;-72
2023/09/08 06:14:36;;;;;;;15.03;6.63;;;;;;;;;;5033144;28;20833;-71
2023/09/08 06:17:02;;;;;;;6.70;6.20;;;;;;;;;;5033273;28;20477;-72
2023/09/08 06:19:28;;;;;;;8.40;7.70;;;;;;;;;;5032958;28;20418;-72
2023/09/08 06:21:54;;;;;;;9.07;8.23;;;;;;;;;;5033251;28;20427;-71
2023/09/08 06:24:20;;;;;;;10.00;9.00;;;;;;;;;;5033200;28;20427;-73
2023/09/08 06:26:46;;;;;;;9.10;8.40;;;;;;;;;;5033123;28;20466;-70
2023/09/08 06:29:12;;;;;;;8.60;7.90;;;;;;;;;;5032901;28;20458;-72
2023/09/08 06:31:41;;;;;;;10.23;8.27;;;;;;;;;;5032987;28;20501;-69
2023/09/08 06:34:07;;;;;;;8.00;7.47;;;;;;;;;;5035293;28;20988;-73
2023/09/08 06:36:33;;;;;;;12.80;9.10;;;;;;;;;;5037157;28;20419;-73
2023/09/08 06:39:00;;;;;;;9.90;9.00;;;;;;;;;;5036787;28;20443;-72
2023/09/08 06:41:27;;;;;;;9.27;8.30;;;;;;;;;;5037110;28;20423;-72
2023/09/08 06:43:54;;;;;;;8.20;7.70;;;;;;;;;;5036766;28;20797;-71
2023/09/08 06:46:20;;;;;;;8.50;7.70;;;;;;;;;;5037156;28;20419;-71
2023/09/08 06:48:46;;;;;;;10.30;7.93;;;;;;;;;;5036814;28;20418;-72
2023/09/08 06:51:12;;;;;;;15.97;8.87;;;;;;;;;;5036539;28;20466;-71
2023/09/08 06:53:38;;;;;;;8.67;7.93;;;;;;;;;;5036483;28;20485;-73
2023/09/08 06:56:04;;;;;;;7.60;7.20;;;;;;;;;;5037290;28;20494;-72
2023/09/08 06:58:30;;;;;;;8.60;8.00;;;;;;;;;;5037082;28;20934;-72
2023/09/08 07:00:56;;;;;;;8.10;7.50;;;;;;;;;;5036273;28;20835;-72
2023/09/08 07:03:26;;;;;;;8.93;8.13;;;;;;;;;;5036759;28;20415;-73
2023/09/08 07:05:52;;;;;;;14.73;8.13;;;;;;;;;;5037147;28;20196;-73
2023/09/08 07:08:18;;;;;;;8.50;7.70;;;;;;;;;;5036424;28;20447;-73
2023/09/08 07:10:44;;;;;;;8.00;7.60;;;;;;;;;;5036557;28;20480;-72
2023/09/08 07:13:10;;;;;;;8.63;7.33;;;;;;;;;;5036635;28;20435;-72
2023/09/08 07:15:36;;;;;;;8.70;8.10;;;;;;;;;;5036394;28;20757;-72
2023/09/08 07:18:02;;;;;;;10.20;8.20;;;;;;;;;;5036577;28;20847;-69
2023/09/08 07:20:28;;;;;;;10.63;8.30;;;;;;;;;;5036207;28;20604;-69
2023/09/08 07:22:54;;;;;;;11.43;7.70;;;;;;;;;;5036254;28;20419;-70
2023/09/08 07:25:20;;;;;;;16.67;7.97;;;;;;;;;;5035842;28;20430;-68
2023/09/08 07:27:46;;;;;;;24.43;7.77;;;;;;;;;;5036330;28;20415;-73
2023/09/08 07:30:12;;;;;;;16.73;7.70;;;;;;;;;;5036216;28;20447;-71
2023/09/08 07:32:39;;;;;;;22.67;7.50;;;;;;;;;;5036056;28;20478;-71
2023/09/08 07:35:05;;;;;;;19.90;8.50;;;;;;;;;;5035996;28;20430;-67
2023/09/08 07:37:31;;;;;;;23.53;8.97;;;;;;;;;;5036175;28;20426;-69
2023/09/08 07:39:57;;;;;;;23.20;8.00;;;;;;;;;;5036168;28;20749;-69
2023/09/08 07:42:25;;;;;;;20.67;7.73;;;;;;;;;;5036068;28;20451;-69
2023/09/08 07:44:51;;;;;;;23.87;8.33;;;;;;;;;;5034440;28;20821;-69
2023/09/08 07:47:17;;;;;;;8.20;7.10;;;;;;;;;;5035758;28;20419;-70
2023/09/08 07:49:46;;;;;;;8.57;7.80;;;;;;;;;;5035589;28;20435;-68
2023/09/08 07:52:12;;;;;;;11.70;7.95;;;;;;;;;;5035073;28;20445;-71
2023/09/08 07:54:38;;;;;;;14.07;7.90;;;;;;;;;;5035533;28;20282;-70
2023/09/08 07:57:04;;;;;;;9.63;7.67;;;;;;;;;;5035613;28;20419;-71
2023/09/08 07:59:30;;;;;;;6.33;5.73;;;;;;;;;;5036043;28;20502;-72
2023/09/08 08:01:56;;;;;;;9.50;6.53;;;;;;;;;;5035661;28;20446;-73
2023/09/08 08:04:22;;;;;;;7.83;7.13;;;;;;;;;;5035666;28;20415;-72
2023/09/08 08:06:49;;;;;;;17.63;8.03;;;;;;;;;;5035735;28;20911;-70
2023/09/08 08:09:15;;;;;;;11.17;7.47;;;;;;;;;;5035184;28;20442;-70
2023/09/08 08:11:41;;;;;;;7.90;7.17;;;;;;;;;;5035145;28;20475;-70
2023/09/08 08:14:07;;;;;;;10.13;7.60;;;;;;;;;;5035711;28;20473;-69
2023/09/08 08:16:34;;;;;;;11.43;7.00;;;;;;;;;;5035057;28;20434;-69
2023/09/08 08:19:00;;;;;;;20.60;10.23;;;;;;;;;;5035188;28;20430;-71
2023/09/08 08:21:26;;;;;;;7.87;7.20;;;;;;;;;;5034937;28;20430;-70
2023/09/08 08:23:52;;;;;;;6.73;6.13;;;;;;;;;;5035153;28;20419;-70
2023/09/08 08:26:18;;;;;;;15.43;7.60;;;;;;;;;;5035877;28;20442;-71
2023/09/08 08:28:44;;;;;;;6.60;6.13;;;;;;;;;;5035117;28;20428;-71
2023/09/08 08:31:10;;;;;;;8.27;6.43;;;;;;;;;;5034921;28;20574;-71
2023/09/08 08:33:36;;;;;;;6.87;6.47;;;;;;;;;;5034829;28;20934;-71
2023/09/08 08:36:03;;;;;;;7.60;7.00;;;;;;;;;;5035123;28;20424;-73
2023/09/08 08:38:29;;;;;;;6.80;6.40;;;;;;;;;;5035276;28;20425;-72
2023/09/08 08:40:55;;;;;;;8.50;6.00;;;;;;;;;;5034710;28;20435;-71
2023/09/08 08:43:22;;;;;;;7.50;7.10;;;;;;;;;;5035030;28;20427;-70
2023/09/08 08:45:49;;;;;;;6.83;6.50;;;;;;;;;;5034666;28;20427;-72
2023/09/08 08:48:16;;;;;;;7.03;6.43;;;;;;;;;;5034022;28;20864;-71
2023/09/08 08:50:42;;;;;;;7.60;6.90;;;;;;;;;;5034838;28;20531;-70
2023/09/08 08:53:09;;;;;;;12.93;6.23;;;;;;;;;;5034598;28;20458;-72
2023/09/08 08:55:35;;;;;;;7.23;6.73;;;;;;;;;;5034120;28;20489;-72
2023/09/08 08:58:05;;;;;;;9.60;6.77;;;;;;;;;;5034603;28;20425;-71
2023/09/08 09:00:34;;;;;;;7.10;6.57;;;;;;;;;;5034399;28;20507;-70
2023/09/08 09:03:00;;;;;;;7.60;5.63;;;;;;;;;;5034613;28;20434;-72
2023/09/08 09:05:26;;;;;;;6.47;5.87;;;;;;;;;;5034633;28;20415;-72
2023/09/08 09:07:52;;;;;;;9.00;6.03;;;;;;;;;;5034757;28;20420;-72
2023/09/08 09:10:18;;;;;;;5.80;5.17;;;;;;;;;;5034463;28;20632;-71
2023/09/08 09:12:44;;;;;;;6.70;6.30;;;;;;;;;;5034768;28;20517;-71
2023/09/08 09:15:11;;;;;;;7.27;6.53;;;;;;;;;;5034079;28;20481;-70
2023/09/08 09:17:38;;;;;;;13.93;6.60;;;;;;;;;;5034272;28;20755;-70
2023/09/08 09:20:17;;;;;;;6.93;6.30;;;;;;;;;;5034288;28;20506;-70
2023/09/08 09:22:43;;;;;;;6.00;5.80;;;;;;;;;;5034377;28;20446;-70
2023/09/08 09:25:10;;;;;;;7.03;6.57;;;;;;;;;;5034297;28;20415;-70
2023/09/08 09:27:41;;;;;;;6.73;6.23;;;;;;;;;;5034189;28;20454;-70
2023/09/08 09:30:08;;;;;;;10.43;6.23;;;;;;;;;;5034142;28;20399;-70
2023/09/08 09:32:35;;;;;;;5.70;5.10;;;;;;;;;;5033942;28;20475;-71
2023/09/08 09:35:01;;;;;;;20.43;6.53;;;;;;;;;;5034037;28;20427;-70
2023/09/08 09:37:27;;;;;;;6.13;5.63;;;;;;;;;;5034060;28;20450;-71
2023/09/08 09:39:54;;;;;;;12.60;5.60;;;;;;;;;;5033804;28;20459;-70
2023/09/08 09:42:20;;;;;;;7.43;6.70;;;;;;;;;;5033661;28;20414;-71
2023/09/08 09:44:51;;;;;;;12.63;5.50;;;;;;;;;;5033815;28;20783;-71
2023/09/08 09:47:17;;;;;;;6.60;6.00;;;;;;;;;;5033867;28;20473;-71
2023/09/08 09:49:43;;;;;;;11.20;6.10;;;;;;;;;;5033736;28;20403;-71
2023/09/08 09:52:13;;;;;;;9.93;6.63;;;;;;;;;;5033640;28;20494;-70
2023/09/08 09:54:39;;;;;;;8.37;6.93;;;;;;;;;;5033266;28;20465;-70
2023/09/08 09:57:05;;;;;;;8.93;7.10;;;;;;;;;;5033617;28;20498;-70
2023/09/08 09:59:31;;;;;;;6.10;5.60;;;;;;;;;;5033657;28;20412;-70
2023/09/08 10:01:58;;;;;;;6.80;6.40;;;;;;;;;;5033530;28;20427;-71
2023/09/08 10:04:24;;;;;;;9.43;5.57;;;;;;;;;;5033261;28;20415;-70
2023/09/08 10:06:52;;;;;;;6.73;5.50;;;;;;;;;;5033890;28;20432;-71
2023/09/08 10:09:19;;;;;;;8.87;6.40;;;;;;;;;;5032593;28;20420;-70
2023/09/08 10:11:49;;;;;;;7.03;6.50;;;;;;;;;;5032895;28;20570;-72
2023/09/08 10:14:15;;;;;;;6.90;6.30;;;;;;;;;;5032762;28;20416;-72
2023/09/08 10:16:44;;;;;;;5.00;4.80;;;;;;;;;;5033355;28;20422;-72
2023/09/08 10:19:10;;;;;;;5.80;5.40;;;;;;;;;;5031642;28;20804;-70
2023/09/08 10:21:45;;;;;;;6.20;5.77;;;;;;;;;;5032958;28;20407;-70
2023/09/08 10:24:15;;;;;;;5.80;5.37;;;;;;;;;;5033046;28;20411;-70
2023/09/08 10:26:44;;;;;;;5.87;5.47;;;;;;;;;;5034044;28;20443;-69
2023/09/08 10:29:10;;;;;;;6.20;5.90;;;;;;;;;;5032868;28;20427;-69
2023/09/08 10:31:36;;;;;;;7.00;6.40;;;;;;;;;;5033075;28;20600;-69
2023/09/08 10:34:03;;;;;;;11.67;6.70;;;;;;;;;;5033352;28;20895;-69
2023/09/08 10:36:29;;;;;;;7.33;6.40;;;;;;;;;;5033055;28;20408;-69
2023/09/08 10:39:15;;;;;;;6.27;5.40;;;;;;;;;;5032939;28;20431;-71
2023/09/08 10:41:44;;;;;;;12.60;6.30;;;;;;;;;;5032739;28;20438;-70
2023/09/08 10:44:15;;;;;;;6.80;5.30;;;;;;;;;;5032720;28;20427;-70
2023/09/08 10:46:41;;;;;;;4.90;4.70;;;;;;;;;;5033001;28;20469;-70
2023/09/08 10:49:07;;;;;;;5.00;4.80;;;;;;;;;;5032681;28;20941;-71
2023/09/08 10:51:34;;;;;;;6.30;5.00;;;;;;;;;;5032795;28;20475;-69
2023/09/08 10:54:00;;;;;;;6.40;5.10;;;;;;;;;;5032642;28;20857;-70
2023/09/08 10:56:45;;;;;;;9.47;6.10;;;;;;;;;;5032721;28;20923;-70
2023/09/08 10:59:11;;;;;;;5.43;5.27;;;;;;;;;;5032814;28;20415;-68
2023/09/08 11:01:37;;;;;;;5.90;4.70;;;;;;;;;;5032450;28;20458;-69
2023/09/08 11:04:08;;;;;;;4.97;4.60;;;;;;;;;;5033160;28;20511;-69
2023/09/08 11:06:35;;;;;;;5.40;4.93;;;;;;;;;;5032632;28;20535;-72
2023/09/08 11:09:08;;;;;;;4.93;4.73;;;;;;;;;;5033323;28;20447;-71
2023/09/08 11:11:34;;;;;;;8.90;5.40;;;;;;;;;;5032407;28;20498;-69
2023/09/08 11:14:00;;;;;;;5.17;4.83;;;;;;;;;;5032856;28;20823;-72
2023/09/08 11:16:31;;;;;;;5.17;4.67;;;;;;;;;;5047785;28;20473;-71
2023/09/08 11:18:57;;;;;;;5.20;4.80;;;;;;;;;;5033111;28;20461;-70
2023/09/08 11:21:23;;;;;;;5.03;4.50;;;;;;;;;;5036012;28;20423;-69
2023/09/08 11:23:49;;;;;;;5.10;4.73;;;;;;;;;;5036860;28;20510;-69
2023/09/08 11:26:15;;;;;;;4.50;4.30;;;;;;;;;;5036611;28;20451;-69
2023/09/08 11:28:41;;;;;;;4.70;4.50;;;;;;;;;;5036281;28;20477;-69
2023/09/08 11:31:08;;;;;;;5.13;4.57;;;;;;;;;;5036100;28;20865;-71
2023/09/08 11:33:39;;;;;;;6.83;4.80;;;;;;;;;;5036160;28;20423;-70
2023/09/08 11:36:12;;;;;;;4.90;4.50;;;;;;;;;;5036153;28;20392;-70
2023/09/08 11:38:38;;;;;;;10.00;5.33;;;;;;;;;;5035990;28;20470;-70
2023/09/08 11:41:04;;;;;;;5.10;4.63;;;;;;;;;;5036337;28;20545;-69
2023/09/08 11:43:33;;;;;;;4.67;4.37;;;;;;;;;;5036397;28;20416;-72
2023/09/08 11:45:59;;;;;;;5.07;4.87;;;;;;;;;;5034560;28;20442;-70
2023/09/08 11:48:25;;;;;;;7.90;4.67;;;;;;;;;;5036035;28;20469;-71
2023/09/08 11:50:55;;;;;;;4.90;4.60;;;;;;;;;;5035785;28;20431;-70
2023/09/08 11:53:21;;;;;;;5.47;5.07;;;;;;;;;;5035912;28;20422;-69
2023/09/08 11:55:48;;;;;;;5.20;5.00;;;;;;;;;;5035495;28;20463;-71
2023/09/08 11:58:14;;;;;;;4.83;4.27;;;;;;;;;;5035638;28;20423;-70
2023/09/08 12:00:40;;;;;;;6.23;4.73;;;;;;;;;;5035769;28;20439;-69
2023/09/08 12:03:15;;;;;;;4.57;4.37;;;;;;;;;;5035626;28;20441;-68
2023/09/08 12:05:42;;;;;;;3.87;3.67;;;;;;;;;;5035330;28;20425;-69
2023/09/08 12:08:08;;;;;;;10.10;3.70;;;;;;;;;;5035363;28;20904;-70
2023/09/08 12:10:40;;;;;;;4.63;3.90;;;;;;;;;;5036033;28;20510;-69
2023/09/08 12:13:07;;;;;;;10.33;4.50;;;;;;;;;;5035161;28;20428;-70
2023/09/08 12:15:33;;;;;;;5.10;4.90;;;;;;;;;;5035098;28;20903;-69
2023/09/08 12:17:59;;;;;;;7.73;3.73;;;;;;;;;;5035125;28;20477;-69
2023/09/08 12:20:25;;;;;;;4.53;4.13;;;;;;;;;;5035343;28;20476;-69
2023/09/08 12:22:51;;;;;;;4.23;3.93;;;;;;;;;;5033682;28;20520;-69
2023/09/08 12:25:18;;;;;;;3.80;3.70;;;;;;;;;;5035129;28;20422;-69
2023/09/08 12:27:44;;;;;;;15.83;6.10;;;;;;;;;;5035080;28;20995;-69
2023/09/08 12:30:16;;;;;;;3.73;3.63;;;;;;;;;;5034776;28;20476;-69
2023/09/08 12:32:42;;;;;;;3.73;3.63;;;;;;;;;;5034346;28;20860;-69
2023/09/08 12:35:09;;;;;;;11.40;4.20;;;;;;;;;;5034921;28;20930;-70
2023/09/08 12:37:36;;;;;;;4.97;4.57;;;;;;;;;;5034750;28;20442;-68
2023/09/08 12:40:02;;;;;;;6.20;4.03;;;;;;;;;;5035296;28;20450;-68
2023/09/08 12:42:29;;;;;;;6.43;3.67;;;;;;;;;;5034728;28;20415;-68
2023/09/08 12:44:55;;;;;;;9.70;3.70;;;;;;;;;;5034763;28;20418;-68
2023/09/08 12:47:21;;;;;;;4.60;4.20;;;;;;;;;;5034832;28;20423;-69
2023/09/08 12:49:47;;;;;;;3.90;3.60;;;;;;;;;;5034829;28;20986;-70
2023/09/08 12:52:13;;;;;;;3.10;2.90;;;;;;;;;;5034449;28;20850;-69
2023/09/08 12:54:39;;;;;;;4.10;3.73;;;;;;;;;;5034543;28;20467;-71
2023/09/08 12:57:05;;;;;;;3.97;3.77;;;;;;;;;;5034694;28;20815;-69
2023/09/08 12:59:31;;;;;;;4.47;4.10;;;;;;;;;;5034446;28;20423;-70
2023/09/08 13:01:57;;;;;;;4.33;4.03;;;;;;;;;;5034434;28;20538;-69
2023/09/08 13:04:23;;;;;;;4.63;4.43;;;;;;;;;;5034253;28;20415;-68
2023/09/08 13:06:49;;;;;;;4.87;4.57;;;;;;;;;;5032911;28;20435;-68
2023/09/08 13:09:16;;;;;;;5.10;4.10;;;;;;;;;;5034197;28;20418;-68
2023/09/08 13:11:43;;;;;;;7.10;3.87;;;;;;;;;;5035023;28;20489;-69
2023/09/08 13:14:09;;;;;;;4.07;3.83;;;;;;;;;;5034510;28;20419;-69
2023/09/08 13:16:35;;;;;;;7.10;4.20;;;;;;;;;;5034407;28;20514;-68
2023/09/08 13:19:01;;;;;;;4.13;3.97;;;;;;;;;;5034384;28;20479;-69
2023/09/08 13:21:27;;;;;;;5.03;4.17;;;;;;;;;;5034494;28;20423;-69
2023/09/08 13:23:53;;;;;;;6.17;3.90;;;;;;;;;;5034021;28;20870;-68
2023/09/08 13:26:19;;;;;;;4.70;4.30;;;;;;;;;;5033988;28;20416;-69
2023/09/08 13:28:45;;;;;;;4.83;4.43;;;;;;;;;;5032705;28;20423;-69
2023/09/08 13:31:10;;;;;;;6.30;4.60;;;;;;;;;;5033780;28;20932;-70
2023/09/08 13:33:36;;;;;;;7.60;3.50;;;;;;;;;;5034144;28;20423;-69
2023/09/08 13:36:02;;;;;;;8.70;4.10;;;;;;;;;;5033639;28;20425;-69
2023/09/08 13:38:28;;;;;;;11.10;4.40;;;;;;;;;;5034019;28;20230;-68
2023/09/08 13:40:54;;;;;;;4.67;4.30;;;;;;;;;;5033953;28;20963;-70
2023/09/08 13:43:21;;;;;;;6.93;4.03;;;;;;;;;;5033776;28;20830;-69
2023/09/08 13:45:47;;;;;;;4.70;4.40;;;;;;;;;;5033606;28;20637;-69
2023/09/08 13:48:13;;;;;;;10.73;4.10;;;;;;;;;;5033801;28;20477;-69
2023/09/08 13:50:40;;;;;;;5.23;4.63;;;;;;;;;;5033535;28;20825;-68
2023/09/08 13:53:06;;;;;;;3.83;3.63;;;;;;;;;;5033675;28;20816;-69
2023/09/08 13:55:32;;;;;;;4.50;4.23;;;;;;;;;;5033319;28;20517;-69
2023/09/08 13:57:58;;;;;;;4.37;3.90;;;;;;;;;;5033548;28;20435;-69
2023/09/08 14:00:24;;;;;;;11.83;3.40;;;;;;;;;;5033572;28;20419;-69
2023/09/08 14:02:50;;;;;;;4.17;3.87;;;;;;;;;;5033238;28;20430;-68
2023/09/08 14:05:16;;;;;;;3.53;3.43;;;;;;;;;;5033423;28;20438;-69
2023/09/08 14:07:42;;;;;;;3.77;3.57;;;;;;;;;;5033319;28;20911;-68
2023/09/08 14:10:09;;;;;;;4.43;4.07;;;;;;;;;;5033394;28;20459;-69
2023/09/08 14:12:35;;;;;;;3.10;2.97;;;;;;;;;;5033007;28;21054;-68
2023/09/08 14:15:01;;;;;;;4.70;3.87;;;;;;;;;;5033427;28;20887;-69
2023/09/08 14:17:27;;;;;;;4.77;3.50;;;;;;;;;;5033085;28;20419;-70
2023/09/08 14:19:53;;;;;;;4.23;3.90;;;;;;;;;;5033152;28;20473;-69
2023/09/08 14:25:22;;;;;;;7.90;3.90;;;;;;;;;;5033060;28;20776;-69
2023/09/08 14:27:48;;;;;;;6.20;2.90;;;;;;;;;;5032999;28;20423;-69
2023/09/08 14:30:14;;;;;;;4.47;4.17;;;;;;;;;;5033034;28;20499;-69
2023/09/08 14:32:40;;;;;;;6.33;2.90;;;;;;;;;;5032933;28;20565;-69
2023/09/08 14:35:06;;;;;;;10.97;4.23;;;;;;;;;;5033233;28;20902;-69
2023/09/08 14:37:33;;;;;;;5.70;5.20;;;;;;;;;;5032726;28;20915;-69
2023/09/08 14:39:59;;;;;;;3.43;3.23;;;;;;;;;;5032018;28;20407;-69
2023/09/08 14:42:25;;;;;;;3.10;3.00;;;;;;;;;;5032736;28;20412;-69